Time;durP1;ratioP1;P1;durP2;ratioP2;P2;SDS_P1;SDS_P2;PMS_P1;PMS_P2;Temp;Humidity;BMP_temperature;BMP_pressure;BME280_temperature;BME280_humidity;BME280_pressure;Samples;Min_cycle;Max_cycle;Signal;HPM_P1;HPM_P2
2022/11/08 00:01:45;;;;;;;0.10;0.10;;;;;;;11.31;100.00;100909.44;4992274;28;20232;-73
2022/11/08 00:04:12;;;;;;;0.10;0.10;;;;;;;11.25;100.00;100928.75;4984520;28;20038;-76
2022/11/08 00:14:52;;;;;;;;;;;;;;;11.08;100.00;100933.63;4988823;28;20061;-76
2022/11/08 00:17:19;;;;;;;0.10;0.10;;;;;;;10.97;100.00;100932.75;4976503;28;19921;-72
2022/11/08 00:19:44;;;;;;;0.10;0.10;;;;;;;11.01;100.00;100945.81;4988205;28;20551;-74
2022/11/08 00:22:11;;;;;;;0.10;0.10;;;;;;;10.81;100.00;100907.09;4988494;28;20033;-74
2022/11/08 00:24:37;;;;;;;0.00;0.00;;;;;;;10.89;100.00;100933.34;4986722;28;20029;-73
2022/11/08 00:27:05;;;;;;;0.10;0.10;;;;;;;11.15;100.00;100931.28;4988128;28;20038;-75
2022/11/08 00:29:30;;;;;;;0.10;0.10;;;;;;;10.98;100.00;100943.41;4998864;28;20030;-75
2022/11/08 00:31:56;;;;;;;0.10;0.10;;;;;;;10.97;100.00;100922.88;4993110;28;20045;-74
2022/11/08 00:34:21;;;;;;;0.10;0.10;;;;;;;10.67;100.00;100918.03;4990410;28;20069;-71
2022/11/08 00:36:46;;;;;;;0.10;0.10;;;;;;;10.68;100.00;100904.50;4986618;28;20029;-73
2022/11/08 00:39:11;;;;;;;0.10;0.10;;;;;;;10.79;100.00;100938.59;4986796;28;20033;-75
2022/11/08 00:41:37;;;;;;;0.10;0.10;;;;;;;10.87;100.00;100932.63;4983587;28;20030;-73
2022/11/08 00:44:02;;;;;;;0.10;0.10;;;;;;;10.61;100.00;100914.00;4982563;28;20022;-71
2022/11/08 00:46:28;;;;;;;0.10;0.10;;;;;;;10.93;100.00;100937.50;4985415;28;20061;-74
2022/11/08 00:48:53;;;;;;;0.10;0.10;;;;;;;10.40;100.00;100908.44;4987936;28;20026;-75
2022/11/08 00:51:18;;;;;;;0.10;0.10;;;;;;;10.49;100.00;100923.84;4987640;28;20041;-73
2022/11/08 00:53:43;;;;;;;0.10;0.10;;;;;;;10.39;100.00;100901.34;4983802;28;20436;-74
2022/11/08 00:56:10;;;;;;;0.20;0.20;;;;;;;10.64;100.00;100917.28;4988619;28;20076;-72
2022/11/08 00:58:36;;;;;;;0.10;0.10;;;;;;;10.43;100.00;100902.84;5000587;28;20540;-73
2022/11/08 01:01:11;;;;;;;0.10;0.10;;;;;;;10.49;100.00;100888.97;4988376;28;20049;-72
2022/11/08 01:03:36;;;;;;;0.10;0.10;;;;;;;10.60;100.00;100913.13;4988165;28;20037;-76
2022/11/08 01:06:04;;;;;;;0.10;0.10;;;;;;;10.52;100.00;100915.56;4982399;28;20044;-71
2022/11/08 01:08:29;;;;;;;0.10;0.10;;;;;;;10.69;100.00;100914.28;4980849;28;20033;-73
2022/11/08 01:10:54;;;;;;;0.10;0.10;;;;;;;10.57;100.00;100916.09;4996287;28;20054;-73
2022/11/08 01:13:20;;;;;;;0.10;0.10;;;;;;;10.45;100.00;100901.78;4986923;28;20109;-73
2022/11/08 01:15:46;;;;;;;0.10;0.10;;;;;;;10.35;100.00;100901.56;5004711;28;20117;-74
2022/11/08 01:18:12;;;;;;;0.10;0.10;;;;;;;10.35;100.00;100911.44;4976096;28;20030;-74
2022/11/08 01:20:43;;;;;;;0.10;0.10;;;;;;;10.30;100.00;100910.94;4985024;28;20033;-71
2022/11/08 01:23:08;;;;;;;0.10;0.10;;;;;;;10.14;100.00;100914.78;4990142;28;20038;-74
2022/11/08 01:25:36;;;;;;;0.10;0.10;;;;;;;10.27;100.00;100909.34;4987301;28;20029;-71
2022/11/08 01:28:01;;;;;;;0.10;0.10;;;;;;;10.17;100.00;100917.25;4996088;28;20493;-74
2022/11/08 01:30:26;;;;;;;0.10;0.10;;;;;;;10.39;100.00;100914.78;4991638;28;20041;-73
2022/11/08 01:32:51;;;;;;;0.10;0.10;;;;;;;10.33;100.00;100905.34;4994191;28;20080;-71
2022/11/08 01:35:17;;;;;;;0.10;0.10;;;;;;;10.49;100.00;100899.69;4983574;28;20588;-75
2022/11/08 01:37:42;;;;;;;0.10;0.10;;;;;;;10.57;100.00;100907.16;4994515;28;20423;-75
2022/11/08 01:40:08;;;;;;;0.10;0.10;;;;;;;10.23;100.00;100896.25;4997690;28;20120;-73
2022/11/08 01:42:33;;;;;;;0.10;0.10;;;;;;;10.36;100.00;100897.06;4980360;28;20057;-72
2022/11/08 01:45:07;;;;;;;0.10;0.10;;;;;;;10.28;100.00;100886.91;5007365;28;20026;-75
2022/11/08 01:47:33;;;;;;;0.10;0.10;;;;;;;10.52;100.00;100882.47;5003003;28;20042;-74
2022/11/08 01:50:05;;;;;;;0.10;0.10;;;;;;;10.42;100.00;100887.72;4998263;28;20030;-74
2022/11/08 01:52:40;;;;;;;0.10;0.10;;;;;;;10.49;100.00;100878.22;4998534;28;20030;-74
2022/11/08 01:55:12;;;;;;;0.10;0.10;;;;;;;10.42;100.00;100852.81;5003395;28;20486;-73
2022/11/08 01:57:50;;;;;;;0.05;0.05;;;;;;;10.44;100.00;100875.91;4998004;28;20108;-73
2022/11/08 02:00:16;;;;;;;0.10;0.10;;;;;;;10.34;100.00;100843.47;4995865;28;20037;-74
2022/11/08 02:02:43;;;;;;;0.10;0.10;;;;;;;10.65;100.00;100825.03;4996817;28;20030;-72
2022/11/08 02:05:25;;;;;;;0.10;0.10;;;;;;;10.47;100.00;100843.41;4997606;28;20034;-73
2022/11/08 02:08:01;;;;;;;0.10;0.10;;;;;;;10.50;100.00;100843.19;5000782;28;20377;-75
2022/11/08 02:10:32;;;;;;;0.10;0.10;;;;;;;10.54;100.00;100846.50;4995953;28;20026;-73
2022/11/08 02:12:58;;;;;;;0.10;0.10;;;;;;;10.54;100.00;100846.50;4999820;28;20501;-74
2022/11/08 02:15:24;;;;;;;0.10;0.10;;;;;;;10.42;100.00;100834.91;4998921;28;20105;-74
2022/11/08 02:17:49;;;;;;;0.10;0.10;;;;;;;10.49;100.00;100820.00;5002042;28;20034;-73
2022/11/08 02:20:15;;;;;;;0.10;0.10;;;;;;;10.73;100.00;100829.78;4992165;28;20934;-74
2022/11/08 02:22:47;;;;;;;0.10;0.10;;;;;;;10.68;100.00;100813.22;4994053;28;20026;-72
2022/11/08 02:25:13;;;;;;;0.10;0.10;;;;;;;10.53;100.00;100815.28;4979426;28;20428;-72
2022/11/08 02:27:38;;;;;;;0.10;0.10;;;;;;;10.50;100.00;100808.28;4995821;28;20022;-73
2022/11/08 02:30:04;;;;;;;0.10;0.10;;;;;;;10.49;100.00;100795.84;4972209;28;20060;-74
2022/11/08 02:32:37;;;;;;;0.00;0.00;;;;;;;10.29;100.00;100785.78;5006346;28;21145;-73
2022/11/08 02:35:03;;;;;;;0.10;0.10;;;;;;;10.38;100.00;100790.44;4992626;28;20436;-70
2022/11/08 02:37:29;;;;;;;0.10;0.10;;;;;;;10.88;100.00;100808.09;4986676;28;20053;-71
2022/11/08 02:39:54;;;;;;;0.10;0.10;;;;;;;10.66;100.00;100791.00;4996738;28;20029;-74
2022/11/08 02:42:20;;;;;;;0.10;0.10;;;;;;;10.70;100.00;100775.50;4991059;28;20095;-73
2022/11/08 02:44:46;;;;;;;0.10;0.10;;;;;;;10.78;100.00;100795.38;4999211;28;20401;-73
2022/11/08 02:47:11;;;;;;;0.10;0.10;;;;;;;10.78;100.00;100781.94;5002275;28;20092;-73
2022/11/08 02:49:36;;;;;;;0.10;0.10;;;;;;;11.05;100.00;100777.19;4992497;28;20018;-72
2022/11/08 02:52:02;;;;;;;0.00;0.00;;;;;;;10.83;100.00;100804.91;5000103;28;20061;-76
2022/11/08 02:54:28;;;;;;;0.10;0.10;;;;;;;10.45;100.00;100780.97;5005074;28;20134;-73
2022/11/08 02:56:53;;;;;;;0.10;0.10;;;;;;;10.61;100.00;100751.06;4991059;28;20030;-73
2022/11/08 02:59:18;;;;;;;0.10;0.10;;;;;;;10.94;100.00;100783.44;5006227;28;20033;-74
2022/11/08 03:01:43;;;;;;;0.00;0.00;;;;;;;10.90;100.00;100777.44;4990180;28;20030;-71
2022/11/08 03:04:09;;;;;;;0.00;0.00;;;;;;;10.84;100.00;100785.13;4991779;28;20405;-71
2022/11/08 03:06:34;;;;;;;0.10;0.10;;;;;;;10.93;100.00;100771.81;4989430;28;20298;-73
2022/11/08 03:09:00;;;;;;;0.10;0.10;;;;;;;10.61;100.00;100761.81;4988867;28;20035;-74
2022/11/08 03:11:25;;;;;;;0.10;0.10;;;;;;;10.64;100.00;100763.41;4979344;28;20080;-74
2022/11/08 03:13:50;;;;;;;0.00;0.00;;;;;;;10.60;100.00;100751.19;4991729;28;20023;-71
2022/11/08 03:16:15;;;;;;;0.10;0.10;;;;;;;10.50;100.00;100725.06;4985052;28;20041;-73
2022/11/08 03:18:41;;;;;;;0.10;0.10;;;;;;;10.57;100.00;100732.66;4988762;28;20068;-72
2022/11/08 03:21:06;;;;;;;0.10;0.10;;;;;;;10.73;100.00;100743.84;4995219;28;20116;-74
2022/11/08 03:23:31;;;;;;;0.10;0.10;;;;;;;10.62;100.00;100733.97;4990463;28;20049;-75
2022/11/08 03:26:01;;;;;;;0.10;0.10;;;;;;;11.03;100.00;100741.53;4991476;28;20113;-73
2022/11/08 03:28:26;;;;;;;0.10;0.10;;;;;;;10.46;100.00;100718.25;4983165;28;20429;-73
2022/11/08 03:30:52;;;;;;;0.10;0.10;;;;;;;10.78;100.00;100730.91;4971438;28;20044;-70
2022/11/08 03:33:17;;;;;;;0.10;0.10;;;;;;;10.74;100.00;100726.78;4988879;28;20100;-73
2022/11/08 03:35:43;;;;;;;0.10;0.10;;;;;;;10.73;100.00;100716.16;4992398;28;20124;-70
2022/11/08 03:38:08;;;;;;;0.10;0.10;;;;;;;10.58;100.00;100719.13;4985648;28;20314;-73
2022/11/08 03:40:33;;;;;;;0.10;0.10;;;;;;;10.59;100.00;100719.97;4975721;28;20030;-72
2022/11/08 03:42:59;;;;;;;0.10;0.10;;;;;;;10.63;100.00;100714.22;4990242;28;20048;-78
2022/11/08 03:45:24;;;;;;;0.10;0.10;;;;;;;10.46;100.00;100701.28;4973619;28;20021;-74
2022/11/08 03:47:49;;;;;;;0.10;0.10;;;;;;;10.70;100.00;100678.81;4993392;28;20046;-72
2022/11/08 03:50:15;;;;;;;0.10;0.10;;;;;;;10.83;100.00;100716.28;4984578;28;20129;-75
2022/11/08 03:52:49;;;;;;;0.10;0.10;;;;;;;10.75;100.00;100712.38;4977119;28;20128;-74
2022/11/08 03:55:15;;;;;;;0.10;0.10;;;;;;;10.46;100.00;100691.41;4984773;28;20049;-75
2022/11/08 03:57:41;;;;;;;0.08;0.08;;;;;;;10.53;100.00;100698.97;4984558;28;20042;-74
2022/11/08 04:00:09;;;;;;;0.10;0.10;;;;;;;10.73;100.00;100689.31;4984204;28;20034;-72
2022/11/08 04:02:34;;;;;;;0.10;0.10;;;;;;;10.27;100.00;100649.06;4990323;28;20034;-72
2022/11/08 04:05:00;;;;;;;0.10;0.10;;;;;;;10.46;100.00;100656.50;4985401;28;20509;-73
2022/11/08 04:07:25;;;;;;;0.10;0.10;;;;;;;10.48;100.00;100664.44;4988828;28;20301;-71
2022/11/08 04:09:51;;;;;;;0.10;0.10;;;;;;;10.33;100.00;100651.22;4975401;28;20025;-76
2022/11/08 04:15:15;;;;;;;0.10;0.10;;;;;;;10.04;100.00;100627.59;4989072;28;20040;-73
2022/11/08 04:23:17;;;;;;;0.10;0.10;;;;;;;10.13;100.00;100628.69;4985159;28;20132;-74
2022/11/08 04:25:42;;;;;;;0.10;0.10;;;;;;;10.31;100.00;100634.44;4996963;28;20507;-74
2022/11/08 04:28:08;;;;;;;0.10;0.10;;;;;;;10.36;100.00;100636.72;4994763;28;20034;-73
2022/11/08 04:30:34;;;;;;;0.10;0.10;;;;;;;10.16;100.00;100614.16;4994505;28;20025;-75
2022/11/08 04:33:00;;;;;;;0.10;0.10;;;;;;;10.35;100.00;100625.13;4994576;28;20033;-72
2022/11/08 04:35:27;;;;;;;0.10;0.10;;;;;;;10.10;100.00;100617.34;5001425;28;20036;-75
2022/11/08 04:37:59;;;;;;;0.10;0.10;;;;;;;10.24;100.00;100616.25;5003148;28;20445;-74
2022/11/08 04:40:25;;;;;;;0.10;0.10;;;;;;;10.57;100.00;100630.63;5003709;28;20030;-72
2022/11/08 04:42:50;;;;;;;0.00;0.00;;;;;;;10.50;100.00;100622.22;4995857;28;20062;-74
2022/11/08 04:45:15;;;;;;;0.10;0.10;;;;;;;10.31;100.00;100606.72;4978982;28;20026;-73
2022/11/08 04:47:44;;;;;;;0.10;0.10;;;;;;;10.31;100.00;100596.88;4989425;28;20081;-73
2022/11/08 04:50:09;;;;;;;0.00;0.00;;;;;;;10.21;100.00;100602.09;4997481;28;20031;-73
2022/11/08 04:52:35;;;;;;;0.10;0.10;;;;;;;10.33;100.00;100604.78;4990982;28;20052;-73
2022/11/08 04:55:00;;;;;;;0.10;0.10;;;;;;;10.38;100.00;100589.16;4984266;28;20121;-71
2022/11/08 04:57:27;;;;;;;0.10;0.10;;;;;;;10.34;100.00;100607.31;4997321;28;20041;-73
2022/11/08 04:59:52;;;;;;;0.05;0.05;;;;;;;10.17;100.00;100565.78;4999927;28;20034;-73
2022/11/08 05:02:17;;;;;;;0.10;0.10;;;;;;;10.36;100.00;100586.59;4999105;28;20034;-73
2022/11/08 05:04:43;;;;;;;0.10;0.10;;;;;;;10.27;100.00;100583.78;4997922;28;20140;-75
2022/11/08 05:07:08;;;;;;;0.00;0.00;;;;;;;10.11;100.00;100571.63;4995741;28;20361;-74
2022/11/08 05:09:33;;;;;;;0.10;0.10;;;;;;;10.40;100.00;100587.25;4994717;28;20469;-74
2022/11/08 05:11:59;;;;;;;0.10;0.10;;;;;;;10.26;100.00;100569.53;4989070;28;20077;-78
2022/11/08 05:14:24;;;;;;;0.10;0.10;;;;;;;10.04;100.00;100555.19;4989547;28;20105;-75
2022/11/08 05:16:50;;;;;;;0.10;0.10;;;;;;;10.27;100.00;100559.66;4990693;28;20120;-75
2022/11/08 05:23:22;;;;;;;0.10;0.10;;;;;;;10.27;100.00;100543.53;5000537;28;20041;-73
2022/11/08 05:24:44;;;;;;;0.10;0.10;;;;;;;10.06;100.00;100542.47;5000130;28;20566;-73
2022/11/08 05:27:10;;;;;;;0.10;0.10;;;;;;;10.10;100.00;100540.41;4998473;28;20046;-72
2022/11/08 05:29:35;;;;;;;0.10;0.10;;;;;;;10.24;100.00;100536.59;5009530;28;20125;-77
2022/11/08 05:32:00;;;;;;;0.10;0.10;;;;;;;10.65;100.00;100556.53;4978059;28;20141;-74
2022/11/08 05:34:25;;;;;;;0.10;0.10;;;;;;;10.57;100.00;100553.66;4992554;28;20480;-72
2022/11/08 05:36:51;;;;;;;0.10;0.10;;;;;;;10.71;100.00;100560.56;4990365;28;20069;-72
2022/11/08 05:39:16;;;;;;;0.10;0.10;;;;;;;10.22;100.00;100535.88;4979963;28;20076;-72
2022/11/08 05:41:41;;;;;;;0.10;0.10;;;;;;;10.24;100.00;100536.59;4997023;28;20456;-68
2022/11/08 05:44:08;;;;;;;0.10;0.10;;;;;;;10.24;100.00;100570.63;4996209;28;20033;-70
2022/11/08 05:46:34;;;;;;;0.10;0.10;;;;;;;10.33;100.00;100535.00;4980972;28;20030;-71
2022/11/08 05:48:59;;;;;;;0.08;0.08;;;;;;;10.26;100.00;100536.47;4979582;28;20053;-71
2022/11/08 05:51:24;;;;;;;0.10;0.10;;;;;;;10.67;100.00;100544.81;4994451;28;20472;-73
2022/11/08 05:53:50;;;;;;;0.10;0.10;;;;;;;10.30;100.00;100544.16;4978626;28;20376;-72
2022/11/08 05:56:15;;;;;;;0.10;0.10;;;;;;;10.30;100.00;100505.72;4990464;28;20029;-74
2022/11/08 05:58:40;;;;;;;0.10;0.10;;;;;;;10.03;100.00;100496.28;4976622;28;20061;-71
2022/11/08 06:01:13;;;;;;;0.10;0.10;;;;;;;10.28;100.00;100511.25;4982449;28;20049;-74
2022/11/08 06:03:38;;;;;;;0.00;0.00;;;;;;;10.45;100.00;100535.84;4995141;28;20033;-80
2022/11/08 06:06:20;;;;;;;0.10;0.10;;;;;;;10.49;100.00;100546.22;4998484;28;20030;-72
2022/11/08 06:08:45;;;;;;;0.05;0.05;;;;;;;10.17;100.00;100549.69;4979511;28;20021;-75
2022/11/08 06:11:13;;;;;;;0.10;0.10;;;;;;;10.25;100.00;100537.44;4996570;28;20120;-71
2022/11/08 06:13:38;;;;;;;0.10;0.10;;;;;;;9.33;100.00;100412.50;4979067;28;20383;-71
2022/11/08 06:16:09;;;;;;;0.10;0.10;;;;;;;10.34;100.00;100534.03;4999033;28;20030;-75
2022/11/08 06:18:34;;;;;;;0.10;0.10;;;;;;;10.04;100.00;100533.72;4998182;28;20051;-73
2022/11/08 06:21:00;;;;;;;0.10;0.10;;;;;;;10.23;100.00;100536.72;4985805;28;20022;-75
2022/11/08 06:23:26;;;;;;;0.00;0.00;;;;;;;10.32;100.00;100539.53;4983032;28;20036;-73
2022/11/08 06:25:52;;;;;;;0.00;0.00;;;;;;;10.26;100.00;100509.63;4984922;28;20030;-69
2022/11/08 06:28:17;;;;;;;0.10;0.10;;;;;;;10.35;100.00;100535.72;4994537;28;20129;-74
2022/11/08 06:30:42;;;;;;;0.10;0.10;;;;;;;10.15;100.00;100514.06;4992989;28;20126;-75
2022/11/08 06:33:08;;;;;;;0.10;0.10;;;;;;;10.39;100.00;100530.97;4999245;28;20125;-72
2022/11/08 06:35:35;;;;;;;0.10;0.10;;;;;;;10.37;100.00;100536.47;4998470;28;20108;-72
2022/11/08 06:38:01;;;;;;;0.10;0.10;;;;;;;10.19;100.00;100534.31;4999309;28;20368;-77
2022/11/08 06:40:26;;;;;;;0.00;0.00;;;;;;;10.20;100.00;100543.19;4979132;28;20042;-75
2022/11/08 06:42:52;;;;;;;0.10;0.10;;;;;;;10.09;100.00;100508.31;5010152;28;20041;-74
2022/11/08 06:45:17;;;;;;;0.05;0.05;;;;;;;9.99;100.00;100521.63;4984322;28;20319;-74
2022/11/08 06:47:43;;;;;;;0.10;0.10;;;;;;;10.08;100.00;100531.63;4996363;28;20030;-70
2022/11/08 06:50:08;;;;;;;0.10;0.10;;;;;;;10.23;100.00;100547.44;5002080;28;20423;-71
2022/11/08 06:52:33;;;;;;;0.10;0.10;;;;;;;10.19;100.00;100533.44;4994624;28;20488;-73
2022/11/08 06:54:59;;;;;;;0.10;0.10;;;;;;;10.18;100.00;100537.97;5003198;28;20034;-72
2022/11/08 06:57:24;;;;;;;0.10;0.10;;;;;;;10.44;100.00;100528.78;4996426;28;20121;-74
2022/11/08 06:59:49;;;;;;;0.10;0.10;;;;;;;10.15;100.00;100511.38;5000568;28;20033;-74
2022/11/08 07:02:15;;;;;;;0.10;0.10;;;;;;;9.88;100.00;100530.53;4998888;28;20084;-72
2022/11/08 07:04:40;;;;;;;0.10;0.10;;;;;;;10.44;100.00;100523.41;4996511;28;20029;-73
2022/11/08 07:07:05;;;;;;;0.10;0.10;;;;;;;10.61;100.00;100524.72;4997842;28;20153;-73
2022/11/08 07:09:31;;;;;;;0.10;0.10;;;;;;;10.69;100.00;100553.59;4998494;28;20487;-72
2022/11/08 07:11:56;;;;;;;0.10;0.10;;;;;;;10.47;100.00;100515.94;4987377;28;20467;-72
2022/11/08 07:14:21;;;;;;;0.10;0.10;;;;;;;10.50;100.00;100504.13;4995461;28;20058;-72
2022/11/08 07:16:47;;;;;;;0.10;0.10;;;;;;;11.00;100.00;100533.06;4993377;28;20029;-72
2022/11/08 07:19:12;;;;;;;0.10;0.10;;;;;;;10.68;100.00;100538.47;4997511;28;20034;-72
2022/11/08 07:21:37;;;;;;;0.10;0.10;;;;;;;10.40;100.00;100508.53;4995443;28;20065;-78
2022/11/08 07:24:03;;;;;;;0.10;0.10;;;;;;;10.60;100.00;100514.94;4992180;28;20539;-78
2022/11/08 07:26:28;;;;;;;0.10;0.10;;;;;;;10.48;100.00;100523.03;4999798;28;20084;-70
2022/11/08 07:28:53;;;;;;;0.10;0.10;;;;;;;10.75;100.00;100532.44;5002766;28;20033;-71
2022/11/08 07:31:20;;;;;;;0.00;0.00;;;;;;;10.54;100.00;100524.38;4999396;28;20032;-72
2022/11/08 07:33:45;;;;;;;0.10;0.10;;;;;;;10.65;100.00;100529.69;4987845;28;20029;-74
2022/11/08 07:36:11;;;;;;;0.00;0.00;;;;;;;10.98;100.00;100535.06;4986878;28;20653;-78
2022/11/08 07:38:36;;;;;;;0.10;0.10;;;;;;;11.19;100.00;100518.09;4988431;28;20133;-73
2022/11/08 07:41:01;;;;;;;0.00;0.00;;;;;;;10.94;100.00;100510.28;4988680;28;20027;-73
2022/11/08 07:43:27;;;;;;;0.00;0.00;;;;;;;10.70;100.00;100542.75;4992032;28;20044;-74
2022/11/08 07:45:55;;;;;;;0.08;0.08;;;;;;;11.01;100.00;100544.69;4991467;28;20071;-77
2022/11/08 07:48:20;;;;;;;0.10;0.10;;;;;;;10.74;100.00;100536.13;4999972;28;20052;-74
2022/11/08 07:50:46;;;;;;;0.10;0.10;;;;;;;11.02;100.00;100512.31;4982503;28;20407;-75
2022/11/08 07:53:11;;;;;;;0.10;0.10;;;;;;;11.02;100.00;100495.34;4984573;28;20073;-74
2022/11/08 07:55:38;;;;;;;0.10;0.10;;;;;;;11.20;100.00;100546.66;4999862;28;20112;-77
2022/11/08 07:58:03;;;;;;;0.10;0.10;;;;;;;10.94;100.00;100545.19;4982081;28;20030;-75
2022/11/08 08:00:29;;;;;;;0.10;0.10;;;;;;;10.83;100.00;100536.34;4998075;28;20034;-78
2022/11/08 08:02:59;;;;;;;0.10;0.10;;;;;;;10.86;100.00;100498.47;4992551;28;20026;-84
2022/11/08 08:05:25;;;;;;;0.10;0.10;;;;;;;11.14;100.00;100515.78;4979441;28;20027;-77
2022/11/08 08:07:51;;;;;;;0.10;0.10;;;;;;;10.99;100.00;100500.97;4982868;28;20034;-77
2022/11/08 08:10:16;;;;;;;0.00;0.00;;;;;;;11.22;100.00;100509.78;4975976;28;20084;-75
2022/11/08 08:12:41;;;;;;;0.10;0.10;;;;;;;10.98;100.00;100507.31;4991002;28;20651;-76
2022/11/08 08:15:07;;;;;;;0.10;0.10;;;;;;;11.14;99.56;100510.41;4978305;28;20528;-74
2022/11/08 08:17:32;;;;;;;0.10;0.10;;;;;;;10.89;100.00;100503.59;4980647;28;20034;-77
2022/11/08 08:19:57;;;;;;;0.10;0.10;;;;;;;11.02;100.00;100503.41;4975749;28;20053;-76
2022/11/08 08:22:23;;;;;;;0.10;0.10;;;;;;;11.50;97.64;100516.28;4995987;28;20029;-77
2022/11/08 08:24:48;;;;;;;0.10;0.10;;;;;;;11.33;98.63;100536.56;4994532;28;20092;-75
2022/11/08 08:27:14;;;;;;;0.10;0.10;;;;;;;11.46;97.19;100533.66;4990400;28;20395;-77
2022/11/08 08:29:39;;;;;;;0.08;0.08;;;;;;;11.22;98.36;100507.06;4993274;28;20029;-76
2022/11/08 08:32:04;;;;;;;0.08;0.08;;;;;;;11.52;95.94;100510.78;4991270;28;20491;-74
2022/11/08 08:34:30;;;;;;;0.22;0.10;;;;;;;11.42;96.14;100526.00;4993528;28;20365;-80
2022/11/08 08:36:55;;;;;;;0.10;0.10;;;;;;;11.40;97.12;100496.53;4980988;28;20050;-76
2022/11/08 08:39:20;;;;;;;0.10;0.10;;;;;;;11.77;93.94;100509.47;4980566;28;20034;-72
2022/11/08 08:41:46;;;;;;;0.10;0.10;;;;;;;11.78;94.76;100543.44;4969603;28;20054;-78
2022/11/08 08:44:11;;;;;;;0.10;0.10;;;;;;;11.93;93.43;100548.44;4998121;28;20468;-80
2022/11/08 08:46:36;;;;;;;0.10;0.10;;;;;;;11.87;95.60;100554.41;4999402;28;20038;-75
2022/11/08 08:49:02;;;;;;;0.10;0.10;;;;;;;11.95;93.16;100527.66;4992172;28;20053;-76
2022/11/08 08:51:27;;;;;;;0.10;0.10;;;;;;;11.92;93.04;100531.47;4989393;28;20023;-78
2022/11/08 08:53:52;;;;;;;0.10;0.10;;;;;;;11.69;94.56;100544.25;4989627;28;20097;-77
2022/11/08 08:56:17;;;;;;;0.10;0.10;;;;;;;11.46;94.78;100519.38;5015068;28;20487;-76
2022/11/08 08:58:43;;;;;;;0.00;0.00;;;;;;;11.66;95.92;100557.94;4996054;28;20113;-77
2022/11/08 09:01:08;;;;;;;0.00;0.00;;;;;;;12.05;93.76;100552.78;5003439;28;20034;-74
2022/11/08 09:03:34;;;;;;;0.10;0.10;;;;;;;11.79;95.53;100553.22;4996661;28;20022;-75
2022/11/08 09:06:00;;;;;;;0.00;0.00;;;;;;;11.81;94.42;100551.25;4985326;28;20041;-76
2022/11/08 09:08:26;;;;;;;0.10;0.10;;;;;;;11.88;93.89;100529.19;5001146;28;20026;-78
2022/11/08 09:10:56;;;;;;;0.10;0.10;;;;;;;12.07;92.20;100549.94;4995081;28;20062;-78
2022/11/08 09:13:22;;;;;;;0.10;0.10;;;;;;;12.12;92.06;100535.13;4997725;28;20112;-77
2022/11/08 09:15:47;;;;;;;0.05;0.05;;;;;;;12.00;92.85;100515.53;4996489;28;20113;-77
2022/11/08 09:18:13;;;;;;;0.00;0.00;;;;;;;11.93;92.09;100484.75;4994776;28;20472;-79
2022/11/08 09:20:38;;;;;;;0.10;0.10;;;;;;;11.95;93.32;100514.19;4995515;28;20418;-75
2022/11/08 09:23:03;;;;;;;0.00;0.00;;;;;;;11.95;94.07;100496.22;4987126;28;20452;-75
2022/11/08 09:25:29;;;;;;;0.10;0.10;;;;;;;12.17;93.23;100491.63;4994503;28;20034;-75
2022/11/08 09:27:54;;;;;;;0.10;0.10;;;;;;;12.24;91.90;100490.09;4993755;28;20033;-77
2022/11/08 09:30:20;;;;;;;0.10;0.10;;;;;;;12.20;93.05;100501.25;4999026;28;20036;-76
2022/11/08 09:32:45;;;;;;;0.10;0.10;;;;;;;12.16;92.28;100489.94;4993582;28;20029;-83
2022/11/08 09:35:10;;;;;;;0.10;0.10;;;;;;;12.29;91.49;100490.53;4983113;28;20113;-79
2022/11/08 09:37:35;;;;;;;0.10;0.10;;;;;;;12.25;91.93;100516.03;5000159;28;20057;-80
2022/11/08 09:40:01;;;;;;;0.00;0.00;;;;;;;12.21;91.85;100506.53;4994046;28;20030;-76
2022/11/08 09:42:45;;;;;;;0.10;0.10;;;;;;;12.33;90.71;100528.78;4999671;28;20064;-79
2022/11/08 09:45:16;;;;;;;0.08;0.08;;;;;;;12.53;91.12;100520.72;4999687;28;20423;-76
2022/11/08 09:47:43;;;;;;;0.00;0.00;;;;;;;12.25;93.55;100491.81;5002971;28;20338;-76
2022/11/08 09:50:19;;;;;;;0.10;0.10;;;;;;;12.35;92.67;100505.28;4995930;28;20045;-78
2022/11/08 09:53:07;;;;;;;0.00;0.00;;;;;;;12.33;91.49;100527.91;5001388;28;20029;-75
2022/11/08 09:55:40;;;;;;;0.03;0.03;;;;;;;12.45;92.76;100527.66;4997700;28;20372;-73
2022/11/08 09:58:30;;;;;;;0.00;0.00;;;;;;;12.36;93.29;100498.91;4978795;28;20472;-74
2022/11/08 10:00:57;;;;;;;0.10;0.10;;;;;;;12.51;93.70;100509.25;4990462;28;20049;-85
2022/11/08 10:03:23;;;;;;;0.00;0.00;;;;;;;12.77;91.16;100527.53;5000710;28;20030;-76
2022/11/08 10:06:15;;;;;;;0.10;0.10;;;;;;;12.68;92.90;100503.19;4994818;28;20026;-75
2022/11/08 10:08:59;;;;;;;0.10;0.10;;;;;;;12.56;93.14;100507.84;4996972;28;20084;-76
2022/11/08 10:11:43;;;;;;;0.10;0.10;;;;;;;12.87;90.18;100526.56;4982835;28;20029;-73
2022/11/08 10:14:27;;;;;;;0.10;0.10;;;;;;;12.96;91.95;100524.88;5005537;28;20065;-82
2022/11/08 10:17:14;;;;;;;0.10;0.10;;;;;;;13.11;92.19;100536.03;4995725;28;20041;-75
2022/11/08 10:19:59;;;;;;;0.10;0.10;;;;;;;12.98;91.57;100495.91;4995511;28;20034;-79
2022/11/08 10:22:53;;;;;;;0.10;0.10;;;;;;;13.16;88.44;100511.38;4998527;28;20480;-78
2022/11/08 10:25:24;;;;;;;0.10;0.10;;;;;;;13.22;87.42;100529.66;5007033;28;20453;-82
2022/11/08 10:27:53;;;;;;;0.00;0.00;;;;;;;13.22;87.86;100526.09;4989895;28;20096;-82
2022/11/08 10:30:20;;;;;;;0.10;0.10;;;;;;;13.22;90.06;100510.78;4985873;28;20030;-79
2022/11/08 10:32:54;;;;;;;0.10;0.10;;;;;;;13.63;87.59;100537.53;4994808;28;20072;-74
2022/11/08 10:35:29;;;;;;;0.10;0.10;;;;;;;13.88;86.33;100527.91;4997615;28;20041;-73
2022/11/08 10:37:57;;;;;;;0.03;0.03;;;;;;;13.97;86.72;100536.13;4995886;28;20121;-75
2022/11/08 10:40:40;;;;;;;0.10;0.10;;;;;;;14.16;84.30;100527.09;4986750;28;20023;-78
2022/11/08 10:43:20;;;;;;;0.00;0.00;;;;;;;13.93;84.02;100514.84;5002505;28;20096;-79
2022/11/08 10:45:45;;;;;;;0.00;0.00;;;;;;;13.95;84.79;100534.44;4991324;28;20367;-76
2022/11/08 10:48:11;;;;;;;0.10;0.10;;;;;;;13.72;83.95;100504.25;4977264;28;20037;-81
2022/11/08 10:50:49;;;;;;;0.03;0.03;;;;;;;13.45;85.67;100507.78;4985873;28;20803;-74
2022/11/08 10:53:22;;;;;;;0.00;0.00;;;;;;;13.54;86.31;100525.75;4996487;28;20022;-78
2022/11/08 10:55:57;;;;;;;0.00;0.00;;;;;;;13.69;87.26;100544.19;4995506;28;20121;-79
2022/11/08 10:58:40;;;;;;;0.00;0.00;;;;;;;13.46;85.40;100534.59;5001241;28;20072;-79
2022/11/08 11:01:16;;;;;;;0.00;0.00;;;;;;;13.44;86.44;100527.66;4982920;28;20037;-78
2022/11/08 11:03:42;;;;;;;0.00;0.00;;;;;;;13.38;85.24;100515.56;4996188;28;20060;-80
2022/11/08 11:06:24;;;;;;;0.00;0.00;;;;;;;13.57;85.35;100543.53;5006522;28;20053;-81
2022/11/08 11:08:53;;;;;;;0.00;0.00;;;;;;;13.81;84.61;100529.50;4989972;28;20353;-76
2022/11/08 11:11:45;;;;;;;0.10;0.10;;;;;;;13.82;84.04;100530.38;4984641;28;20471;-74
2022/11/08 11:14:20;;;;;;;0.00;0.00;;;;;;;13.59;84.86;100496.50;5014423;28;20038;-81
2022/11/08 11:17:06;;;;;;;0.10;0.10;;;;;;;13.82;87.64;100523.09;4984065;28;20034;-78
2022/11/08 11:19:32;;;;;;;0.10;0.10;;;;;;;13.99;85.44;100510.69;5000170;28;20026;-82
2022/11/08 11:22:02;;;;;;;0.10;0.10;;;;;;;14.30;82.75;100515.75;4999809;28;20504;-75
2022/11/08 11:24:27;;;;;;;0.00;0.00;;;;;;;13.94;83.27;100508.44;4980901;28;20381;-83
2022/11/08 11:26:56;;;;;;;0.10;0.10;;;;;;;14.00;84.07;100508.84;4985393;28;20380;-78
2022/11/08 11:29:26;;;;;;;0.00;0.00;;;;;;;13.80;85.29;100488.19;4997449;28;20034;-73
2022/11/08 11:31:52;;;;;;;0.10;0.10;;;;;;;13.99;85.19;100488.25;4997709;28;20145;-77
2022/11/08 11:34:18;;;;;;;0.10;0.10;;;;;;;14.01;82.67;100497.03;4980075;28;20099;-79
2022/11/08 11:36:44;;;;;;;0.00;0.00;;;;;;;14.02;84.37;100455.56;4996876;28;20642;-76
2022/11/08 11:39:17;;;;;;;0.03;0.03;;;;;;;13.68;84.59;100446.19;4995986;28;20469;-78
2022/11/08 11:42:15;;;;;;;0.00;0.00;;;;;;;13.94;84.80;100494.06;4985102;28;20037;-85